createdAt,value
2018-10-01T00:00:48.973Z,15.20
2018-10-01T00:03:17.262Z,23.83
2018-10-01T00:05:45.510Z,18.50
2018-10-01T00:08:13.805Z,20.43
2018-10-01T00:10:42.158Z,19.60
2018-10-01T00:13:10.448Z,17.23
2018-10-01T00:15:38.875Z,16.53
2018-10-01T00:18:07.262Z,18.53
2018-10-01T00:20:40.806Z,17.43
2018-10-01T00:23:09.263Z,17.10
2018-10-01T00:25:37.559Z,16.63
2018-10-01T00:28:05.857Z,17.37
2018-10-01T00:30:34.238Z,15.37
2018-10-01T00:33:02.575Z,16.27
2018-10-01T00:35:30.919Z,19.03
2018-10-01T00:37:59.180Z,16.37
2018-10-01T00:40:27.462Z,18.43
2018-10-01T00:42:56.033Z,17.47
2018-10-01T00:45:24.361Z,17.00
2018-10-01T00:47:52.657Z,22.50
2018-10-01T00:50:20.978Z,15.43
2018-10-01T00:52:49.410Z,21.63
2018-10-01T00:55:17.746Z,22.67
2018-10-01T00:57:46.080Z,17.47
2018-10-01T01:00:14.490Z,16.80
2018-10-01T01:02:42.915Z,14.93
2018-10-01T01:05:11.230Z,15.93
2018-10-01T01:07:39.530Z,14.37
2018-10-01T01:10:10.298Z,13.33
2018-10-01T01:12:38.620Z,17.27
2018-10-01T01:15:07.021Z,13.70
2018-10-01T01:17:35.322Z,17.77
2018-10-01T01:20:03.781Z,14.03
2018-10-01T01:22:32.232Z,13.93
2018-10-01T01:25:01.460Z,23.57
2018-10-01T01:27:29.841Z,18.37
2018-10-01T01:29:58.157Z,15.67
2018-10-01T01:32:26.505Z,17.30
2018-10-01T01:34:55.888Z,13.73
2018-10-01T01:37:24.150Z,14.43
2018-10-01T01:39:52.449Z,16.47
2018-10-01T01:42:20.769Z,14.60
2018-10-01T01:44:49.022Z,16.03
2018-10-01T01:47:17.366Z,14.77
2018-10-01T01:49:45.681Z,15.77
2018-10-01T01:52:13.983Z,14.97
2018-10-01T01:54:42.511Z,21.70
2018-10-01T01:57:10.875Z,15.53
2018-10-01T01:59:39.215Z,13.83
2018-10-01T02:02:07.568Z,15.67
2018-10-01T02:04:36.450Z,15.57
2018-10-01T02:07:04.729Z,18.00
2018-10-01T02:09:33.209Z,12.63
2018-10-01T02:12:01.486Z,14.50
2018-10-01T02:14:29.830Z,16.80
2018-10-01T02:16:58.090Z,15.00
2018-10-01T02:19:26.425Z,15.97
2018-10-01T02:21:54.699Z,16.83
2018-10-01T02:24:23.256Z,12.83
2018-10-01T02:26:55.173Z,14.47
2018-10-01T02:29:23.441Z,17.00
2018-10-01T02:31:51.706Z,15.80
2018-10-01T02:34:19.988Z,15.43
2018-10-01T02:36:48.330Z,13.43
2018-10-01T02:39:16.668Z,14.73
2018-10-01T02:41:45.514Z,11.67
2018-10-01T02:44:14.249Z,15.70
2018-10-01T02:46:42.554Z,17.70
2018-10-01T02:49:10.846Z,16.80
2018-10-01T02:51:44.384Z,9.50
2018-10-01T02:54:18.232Z,13.37
2018-10-01T02:56:46.562Z,12.20
2018-10-01T02:59:14.855Z,20.60
2018-10-01T03:01:43.173Z,18.63
2018-10-01T03:04:11.439Z,15.47
2018-10-01T03:06:39.726Z,17.83
2018-10-01T03:09:10.817Z,14.83
2018-10-01T03:11:39.150Z,13.90
2018-10-01T03:14:07.554Z,11.87
2018-10-01T03:16:36.261Z,12.33
2018-10-01T03:19:04.842Z,13.17
2018-10-01T03:21:33.330Z,15.87
2018-10-01T03:24:01.685Z,17.03
2018-10-01T03:26:29.929Z,8.37
2018-10-01T03:28:58.217Z,12.23
2018-10-01T03:31:28.769Z,12.93
2018-10-01T03:33:57.291Z,13.57
2018-10-01T03:36:27.091Z,9.97
2018-10-01T03:38:55.517Z,14.43
2018-10-01T03:41:23.795Z,11.20
2018-10-01T03:43:52.073Z,13.63
2018-10-01T03:46:21.233Z,22.00
2018-10-01T03:48:49.798Z,17.07
2018-10-01T03:51:18.137Z,14.00
2018-10-01T03:53:46.470Z,16.67
2018-10-01T03:56:14.804Z,12.33
2018-10-01T03:58:43.172Z,16.47
2018-10-01T04:01:11.525Z,12.70
2018-10-01T04:03:39.875Z,15.60
2018-10-01T04:06:08.174Z,14.30
2018-10-01T04:08:36.641Z,18.40
2018-10-01T04:11:04.865Z,16.40
2018-10-01T04:13:33.209Z,18.27
2018-10-01T04:16:01.755Z,16.07
2018-10-01T04:18:30.308Z,16.43
2018-10-01T04:20:58.610Z,12.50
2018-10-01T04:23:28.065Z,16.97
2018-10-01T04:25:56.766Z,12.57
2018-10-01T04:28:25.167Z,14.60
2018-10-01T04:30:53.473Z,18.10
2018-10-01T04:33:21.738Z,14.07
2018-10-01T04:35:50.050Z,16.67
2018-10-01T04:38:18.369Z,11.90
2018-10-01T04:40:46.679Z,11.50
2018-10-01T04:43:14.940Z,13.27
2018-10-01T04:45:44.469Z,14.27
2018-10-01T04:48:12.742Z,14.73
2018-10-01T04:50:41.037Z,12.57
2018-10-01T04:53:09.363Z,10.27
2018-10-01T04:55:37.681Z,12.47
2018-10-01T04:58:06.133Z,10.03
2018-10-01T05:00:34.345Z,15.23
2018-10-01T05:03:02.673Z,12.30
2018-10-01T05:05:30.953Z,12.67
2018-10-01T05:07:59.227Z,11.17
2018-10-01T05:10:27.486Z,13.87
2018-10-01T05:12:55.750Z,13.70
2018-10-01T05:15:24.279Z,18.33
2018-10-01T05:17:54.237Z,23.20
2018-10-01T05:20:22.501Z,14.20
2018-10-01T05:22:50.781Z,16.37
2018-10-01T05:25:19.067Z,15.23
2018-10-01T05:27:49.034Z,15.20
2018-10-01T05:30:17.487Z,15.33
2018-10-01T05:32:45.989Z,11.83
2018-10-01T05:35:14.374Z,15.30
2018-10-01T05:37:42.927Z,16.00
2018-10-01T05:40:11.607Z,12.40
2018-10-01T05:42:39.957Z,14.13
2018-10-01T05:45:08.233Z,14.97
2018-10-01T05:47:37.617Z,14.53
2018-10-01T05:50:06.582Z,15.90
2018-10-01T05:52:35.506Z,9.70
2018-10-01T05:55:03.927Z,13.73
2018-10-01T05:57:33.315Z,14.37
2018-10-01T06:00:01.554Z,12.23
2018-10-01T06:02:29.862Z,16.13
2018-10-01T06:04:58.159Z,12.53
2018-10-01T06:07:26.507Z,12.23
2018-10-01T06:09:54.788Z,12.53
2018-10-01T06:12:23.101Z,13.30
2018-10-01T06:14:51.384Z,16.37
2018-10-01T06:17:19.789Z,13.03
2018-10-01T06:19:48.069Z,10.63
2018-10-01T06:22:16.785Z,12.43
2018-10-01T06:24:46.034Z,13.87
2018-10-01T06:27:14.420Z,12.07
2018-10-01T06:29:42.697Z,10.97
2018-10-01T06:32:11.038Z,17.63
2018-10-01T06:34:39.332Z,13.07
2018-10-01T06:37:07.635Z,12.20
2018-10-01T06:39:35.945Z,17.63
2018-10-01T06:42:04.289Z,14.93
2018-10-01T06:44:32.624Z,14.67
2018-10-01T06:47:00.950Z,14.27
2018-10-01T06:49:29.243Z,13.03
2018-10-01T06:51:57.553Z,13.17
2018-10-01T06:54:25.841Z,14.27
2018-10-01T06:56:55.250Z,17.17
2018-10-01T06:59:23.502Z,11.97
2018-10-01T07:01:51.846Z,7.73
2018-10-01T07:04:21.280Z,10.63
2018-10-01T07:06:49.609Z,11.83
2018-10-01T07:09:17.994Z,11.43
2018-10-01T07:11:46.318Z,9.57
2018-10-01T07:14:14.533Z,12.50
2018-10-01T07:16:42.803Z,10.00
2018-10-01T07:19:11.079Z,4.70
2018-10-01T07:21:39.458Z,9.33
2018-10-01T07:24:08.098Z,7.67
2018-10-01T07:26:36.374Z,10.67
2018-10-01T07:29:04.625Z,10.17
2018-10-01T07:31:32.925Z,7.37
2018-10-01T07:34:01.172Z,7.27
2018-10-01T07:36:29.493Z,5.87
2018-10-01T07:38:57.863Z,4.73
2018-10-01T07:41:26.159Z,6.53
2018-10-01T07:43:54.441Z,8.13
2018-10-01T07:46:22.879Z,12.20
2018-10-01T07:48:51.024Z,8.83
2018-10-01T07:51:19.321Z,4.07
2018-10-01T07:53:47.586Z,4.97
2018-10-01T07:56:15.857Z,9.20
2018-10-01T07:58:44.154Z,6.43
2018-10-01T08:01:12.694Z,9.27
2018-10-01T08:03:40.950Z,6.40
2018-10-01T08:06:09.196Z,3.40
2018-10-01T08:08:37.586Z,6.77
2018-10-01T08:11:06.174Z,5.00
2018-10-01T08:13:34.430Z,5.83
2018-10-01T08:16:02.737Z,4.87
2018-10-01T08:18:31.110Z,4.33
2018-10-01T08:20:59.446Z,6.20
2018-10-01T08:23:27.754Z,6.93
2018-10-01T08:25:56.166Z,5.47
2018-10-01T08:28:24.405Z,4.93
2018-10-01T08:30:52.701Z,4.10
2018-10-01T08:33:21.000Z,9.87
2018-10-01T08:35:49.256Z,3.53
2018-10-01T08:38:17.988Z,4.83
2018-10-01T08:40:46.152Z,8.67
2018-10-01T08:43:14.438Z,4.70
2018-10-01T08:45:42.725Z,4.20
2018-10-01T08:48:11.975Z,5.53
2018-10-01T08:50:48.328Z,5.23
2018-10-01T08:53:22.201Z,4.13
2018-10-01T08:55:50.452Z,6.03
2018-10-01T08:58:19.071Z,3.53
2018-10-01T09:00:47.406Z,4.23
2018-10-01T09:03:15.685Z,4.97
2018-10-01T09:05:44.045Z,5.60
2018-10-01T09:08:12.379Z,7.10
2018-10-01T09:10:40.733Z,7.63
2018-10-01T09:13:08.999Z,3.70
2018-10-01T09:15:37.329Z,4.63
2018-10-01T09:18:05.849Z,2.77
2018-10-01T09:20:34.144Z,6.03
2018-10-01T09:23:02.411Z,6.60
2018-10-01T09:25:31.791Z,4.47
2018-10-01T09:28:00.114Z,6.10
2018-10-01T09:30:28.405Z,7.03
2018-10-01T09:32:56.666Z,2.73
2018-10-01T09:35:24.978Z,3.13
2018-10-01T09:37:53.304Z,6.50
2018-10-01T09:40:21.943Z,3.50
2018-10-01T09:42:50.333Z,5.63
2018-10-01T09:45:18.658Z,3.47
2018-10-01T09:47:47.434Z,5.13
2018-10-01T09:50:16.078Z,3.60
2018-10-01T09:52:44.302Z,3.20
2018-10-01T09:55:12.819Z,8.03
2018-10-01T09:57:41.134Z,5.97
2018-10-01T10:00:10.210Z,3.10
2018-10-01T10:02:38.720Z,3.13
2018-10-01T10:05:07.059Z,3.53
2018-10-01T10:07:35.399Z,4.93
2018-10-01T10:10:03.742Z,3.67
2018-10-01T10:12:32.006Z,3.80
2018-10-01T10:15:00.281Z,3.67
2018-10-01T10:17:28.606Z,4.27
2018-10-01T10:19:56.870Z,3.97
2018-10-01T10:22:25.247Z,1.67
2018-10-01T10:24:54.953Z,3.63
2018-10-01T10:27:23.242Z,1.70
2018-10-01T10:29:51.557Z,6.53
2018-10-01T10:32:19.937Z,4.17
2018-10-01T10:34:48.166Z,3.80
2018-10-01T10:37:16.490Z,3.57
2018-10-01T10:39:44.820Z,4.23
2018-10-01T10:42:13.493Z,7.90
2018-10-01T10:44:41.917Z,5.00
2018-10-01T10:47:10.082Z,4.37
2018-10-01T10:49:42.255Z,5.93
2018-10-01T10:52:23.871Z,5.13
2018-10-01T10:54:52.246Z,4.40
2018-10-01T10:57:20.529Z,4.50
2018-10-01T10:59:48.841Z,2.23
2018-10-01T11:02:17.295Z,2.00
2018-10-01T11:04:45.598Z,4.17
2018-10-01T11:07:14.148Z,5.17
2018-10-01T11:09:42.390Z,2.90
2018-10-01T11:12:10.780Z,2.80
2018-10-01T11:14:39.989Z,2.63
2018-10-01T11:17:08.306Z,3.40
2018-10-01T11:19:36.592Z,3.60
2018-10-01T11:22:14.802Z,5.10
2018-10-01T11:24:43.126Z,2.93
2018-10-01T11:27:11.842Z,5.50
2018-10-01T11:29:43.639Z,1.20
2018-10-01T11:32:12.010Z,2.70
2018-10-01T11:34:40.305Z,1.53
2018-10-01T11:37:12.809Z,3.23
2018-10-01T11:39:41.626Z,1.43
2018-10-01T11:42:09.821Z,1.03
2018-10-01T11:44:38.149Z,2.00
2018-10-01T11:47:06.506Z,1.80
2018-10-01T11:49:34.808Z,2.90
2018-10-01T11:52:03.116Z,0.90
2018-10-01T11:54:31.405Z,4.63
2018-10-01T11:56:59.842Z,1.10
2018-10-01T11:59:27.981Z,4.87
2018-10-01T12:01:59.950Z,3.60
2018-10-01T12:04:28.310Z,5.53
2018-10-01T12:06:56.570Z,3.63
2018-10-01T12:09:24.945Z,3.27
2018-10-01T12:11:53.158Z,3.33
2018-10-01T12:14:21.465Z,6.30
2018-10-01T12:16:49.966Z,6.07
2018-10-01T12:19:18.233Z,3.17
2018-10-01T12:21:46.611Z,7.33
2018-10-01T12:24:14.940Z,6.07
2018-10-01T12:26:43.279Z,6.20
2018-10-01T12:29:11.867Z,7.03
2018-10-01T12:31:40.153Z,5.30
2018-10-01T12:34:08.431Z,2.77
2018-10-01T12:36:36.815Z,4.80
2018-10-01T12:39:07.645Z,5.00
2018-10-01T12:41:35.857Z,3.30
2018-10-01T12:44:04.139Z,8.37
2018-10-01T12:46:32.551Z,3.53
2018-10-01T12:49:01.251Z,5.10
2018-10-01T12:51:29.544Z,5.63
2018-10-01T12:53:57.852Z,7.57
2018-10-01T12:56:26.115Z,4.73
2018-10-01T12:58:54.496Z,6.17
2018-10-01T13:01:22.922Z,5.17
2018-10-01T13:03:51.244Z,11.13
2018-10-01T13:06:19.645Z,6.63
2018-10-01T13:08:47.894Z,5.10
2018-10-01T13:11:16.158Z,7.47
2018-10-01T13:13:44.436Z,6.80
2018-10-01T13:16:12.983Z,10.63
2018-10-01T13:18:41.363Z,13.20
2018-10-01T13:21:09.539Z,6.93
2018-10-01T13:23:38.021Z,8.17
2018-10-01T13:26:06.267Z,7.23
2018-10-01T13:28:34.632Z,6.13
2018-10-01T13:31:05.369Z,10.27
2018-10-01T13:33:33.913Z,7.23
2018-10-01T13:36:02.230Z,4.37
2018-10-01T13:38:30.457Z,5.40
2018-10-01T13:41:17.885Z,9.00
2018-10-01T13:43:48.115Z,4.50
2018-10-01T13:46:16.830Z,4.57
2018-10-01T13:48:45.219Z,3.10
2018-10-01T13:51:13.641Z,6.23
2018-10-01T13:53:42.015Z,5.60
2018-10-01T13:56:10.268Z,6.10
2018-10-01T13:58:38.519Z,4.93
2018-10-01T14:01:06.793Z,8.20
2018-10-01T14:03:35.115Z,6.10
2018-10-01T14:06:03.353Z,6.13
2018-10-01T14:08:31.630Z,8.13
2018-10-01T14:11:00.410Z,4.80
2018-10-01T14:13:28.804Z,8.10
2018-10-01T14:15:57.161Z,6.70
2018-10-01T14:18:25.442Z,9.30
2018-10-01T14:20:53.734Z,6.70
2018-10-01T14:23:22.110Z,6.80
2018-10-01T14:25:50.493Z,11.53
2018-10-01T14:28:18.785Z,4.63
2018-10-01T14:30:47.293Z,4.57
2018-10-01T14:33:15.522Z,6.87
2018-10-01T14:35:43.913Z,7.33
2018-10-01T14:38:12.338Z,7.80
2018-10-01T14:40:40.685Z,8.93
2018-10-01T14:43:08.983Z,10.03
2018-10-01T14:45:37.330Z,11.10
2018-10-01T14:48:05.680Z,8.77
2018-10-01T14:50:34.014Z,10.77
2018-10-01T14:53:02.300Z,7.37
2018-10-01T14:55:30.613Z,9.67
2018-10-01T14:57:58.898Z,12.37
2018-10-01T15:00:27.601Z,6.53
2018-10-01T15:02:55.702Z,12.37
2018-10-01T15:05:29.033Z,10.87
2018-10-01T15:07:57.311Z,7.63
2018-10-01T15:10:25.777Z,6.00
2018-10-01T15:12:54.352Z,10.83
2018-10-01T15:15:22.629Z,8.20
2018-10-01T15:17:50.885Z,5.67
2018-10-01T15:20:20.505Z,4.30
2018-10-01T15:22:48.759Z,4.77
2018-10-01T15:25:17.134Z,3.00
2018-10-01T15:27:45.485Z,5.93
2018-10-01T15:30:14.785Z,7.27
2018-10-01T15:32:42.965Z,6.13
2018-10-01T15:38:04.376Z,3.07
2018-10-01T15:40:32.853Z,9.60
2018-10-01T15:43:02.134Z,5.10
2018-10-01T15:45:30.523Z,3.87
2018-10-01T15:47:58.819Z,5.17
2018-10-01T15:50:27.217Z,3.53
2018-10-01T15:52:55.542Z,5.00
2018-10-01T15:55:23.978Z,6.40
2018-10-01T15:57:52.626Z,3.87
2018-10-01T16:00:21.016Z,7.63
2018-10-01T16:02:49.423Z,3.77
2018-10-01T16:05:17.762Z,2.90
2018-10-01T16:07:46.202Z,6.27
2018-10-01T16:10:14.481Z,2.67
2018-10-01T16:12:42.716Z,4.10
2018-10-01T16:15:11.698Z,4.57
2018-10-01T16:17:40.419Z,2.33
2018-10-01T16:20:09.693Z,6.20
2018-10-01T16:22:38.654Z,4.97
2018-10-01T16:25:07.797Z,3.93
2018-10-01T16:27:36.584Z,6.03
2018-10-01T16:30:05.628Z,3.27
2018-10-01T16:32:34.547Z,4.57
2018-10-01T16:35:04.984Z,3.63
2018-10-01T16:37:33.868Z,3.87
2018-10-01T16:40:02.679Z,5.63
2018-10-01T16:42:31.812Z,5.30
2018-10-01T16:45:00.634Z,6.73
2018-10-01T16:47:29.740Z,5.70
2018-10-01T16:49:59.295Z,4.90
2018-10-01T16:52:28.761Z,6.43
2018-10-01T16:54:57.582Z,4.53
2018-10-01T16:57:26.353Z,5.20
2018-10-01T16:59:55.290Z,2.50
2018-10-01T17:02:24.544Z,7.30
2018-10-01T17:04:53.396Z,2.50
2018-10-01T17:07:22.944Z,5.87
2018-10-01T17:09:51.258Z,5.77
2018-10-01T17:12:19.592Z,4.27
2018-10-01T17:14:47.954Z,4.10
2018-10-01T17:17:16.319Z,6.33
2018-10-01T17:19:44.661Z,5.80
2018-10-01T17:22:13.554Z,3.33
2018-10-01T17:24:41.946Z,3.03
2018-10-01T17:27:10.292Z,3.60
2018-10-01T17:29:38.749Z,3.77
2018-10-01T17:32:07.086Z,4.10
2018-10-01T17:34:35.374Z,7.10
2018-10-01T17:37:03.859Z,5.07
2018-10-01T17:39:32.209Z,4.77
2018-10-01T17:42:00.541Z,7.90
2018-10-01T17:44:28.951Z,4.23
2018-10-01T17:46:57.258Z,2.63
2018-10-01T17:49:25.610Z,4.03
2018-10-01T17:51:54.160Z,7.43
2018-10-01T17:54:22.881Z,4.53
2018-10-01T17:56:52.236Z,3.60
2018-10-01T17:59:22.540Z,6.40
2018-10-01T18:01:50.998Z,3.80
2018-10-01T18:04:19.486Z,4.60
2018-10-01T18:06:47.720Z,4.43
2018-10-01T18:09:16.139Z,7.80
2018-10-01T18:11:44.509Z,4.70
2018-10-01T18:14:12.901Z,6.00
2018-10-01T18:16:41.346Z,7.57
2018-10-01T18:19:10.249Z,5.37
2018-10-01T18:21:38.734Z,6.80
2018-10-01T18:24:07.235Z,7.03
2018-10-01T18:26:35.790Z,3.87
2018-10-01T18:29:06.002Z,5.77
2018-10-01T18:31:34.966Z,3.80
2018-10-01T18:34:03.601Z,3.13
2018-10-01T18:36:32.182Z,7.73
2018-10-01T18:39:00.852Z,5.33
2018-10-01T18:41:29.569Z,3.87
2018-10-01T18:43:58.166Z,7.87
2018-10-01T18:46:26.680Z,13.70
2018-10-01T18:48:55.081Z,4.60
2018-10-01T18:51:23.561Z,5.37
2018-10-01T18:53:52.072Z,11.23
2018-10-01T18:56:20.726Z,6.07
2018-10-01T18:58:49.268Z,2.93
2018-10-01T19:01:18.059Z,6.47
2018-10-01T19:03:46.517Z,4.13
2018-10-01T19:06:15.843Z,4.73
2018-10-01T19:08:44.529Z,3.47
2018-10-01T19:11:12.858Z,6.73
2018-10-01T19:13:41.354Z,7.00
2018-10-01T19:16:09.706Z,6.50
2018-10-01T19:18:38.403Z,1.93
2018-10-01T19:21:08.171Z,6.73
2018-10-01T19:23:37.604Z,2.80
2018-10-01T19:26:06.665Z,7.53
2018-10-01T19:28:34.980Z,6.50
2018-10-01T19:31:03.490Z,5.90
2018-10-01T19:33:31.765Z,6.37
2018-10-01T19:36:00.438Z,6.53
2018-10-01T19:38:29.111Z,6.57
2018-10-01T19:40:57.838Z,5.10
2018-10-01T19:43:26.214Z,9.40
2018-10-01T19:45:54.517Z,7.33
2018-10-01T19:48:23.005Z,6.10
2018-10-01T19:50:51.388Z,4.73
2018-10-01T19:53:19.646Z,8.13
2018-10-01T19:55:48.014Z,8.87
2018-10-01T19:58:17.512Z,5.80
2018-10-01T20:00:45.962Z,5.50
2018-10-01T20:03:14.326Z,7.83
2018-10-01T20:05:42.982Z,6.30
2018-10-01T20:08:11.499Z,7.43
2018-10-01T20:10:39.755Z,7.80
2018-10-01T20:13:08.024Z,6.47
2018-10-01T20:15:37.162Z,5.63
2018-10-01T20:18:05.455Z,9.53
2018-10-01T20:20:33.936Z,7.83
2018-10-01T20:23:02.316Z,6.70
2018-10-01T20:25:30.671Z,5.10
2018-10-01T20:27:59.113Z,7.15
2018-10-01T20:30:27.476Z,5.90
2018-10-01T20:32:55.920Z,6.20
2018-10-01T20:35:24.232Z,11.27
2018-10-01T20:37:52.549Z,10.57
2018-10-01T20:40:20.811Z,7.37
2018-10-01T20:42:49.490Z,6.93
2018-10-01T20:45:17.738Z,6.77
2018-10-01T20:47:46.055Z,6.57
2018-10-01T20:50:14.386Z,5.63
2018-10-01T20:52:43.057Z,13.30
2018-10-01T20:55:11.427Z,6.07
2018-10-01T20:57:39.767Z,8.73
2018-10-01T21:00:09.846Z,6.47
2018-10-01T21:02:38.227Z,5.03
2018-10-01T21:05:07.253Z,7.27
2018-10-01T21:07:35.629Z,12.10
2018-10-01T21:10:04.259Z,6.67
2018-10-01T21:12:32.739Z,7.97
2018-10-01T21:15:01.107Z,8.20
2018-10-01T21:17:29.635Z,10.93
2018-10-01T21:19:57.883Z,10.13
2018-10-01T21:22:26.959Z,7.73
2018-10-01T21:24:55.445Z,10.83
2018-10-01T21:27:25.756Z,7.07
2018-10-01T21:29:54.064Z,10.57
2018-10-01T21:32:22.390Z,10.53
2018-10-01T21:34:50.738Z,12.93
2018-10-01T21:37:19.082Z,13.53
2018-10-01T21:40:10.068Z,10.77
2018-10-01T21:42:38.396Z,11.47
2018-10-01T21:45:07.574Z,16.60
2018-10-01T21:47:36.420Z,11.10
2018-10-01T21:50:04.875Z,11.77
2018-10-01T21:52:33.179Z,12.10
2018-10-01T21:55:01.529Z,9.73
2018-10-01T21:57:29.802Z,12.80
2018-10-01T21:59:58.149Z,10.77
2018-10-01T22:02:26.446Z,12.63
2018-10-01T22:04:54.756Z,19.10
2018-10-01T22:07:23.301Z,13.60
2018-10-01T22:09:51.721Z,9.37
2018-10-01T22:12:20.006Z,14.10
2018-10-01T22:14:49.643Z,13.83
2018-10-01T22:17:17.904Z,10.43
2018-10-01T22:19:46.156Z,11.73
2018-10-01T22:22:14.405Z,8.87
2018-10-01T22:24:42.762Z,9.03
2018-10-01T22:27:11.073Z,9.23
2018-10-01T22:29:39.322Z,11.10
2018-10-01T22:32:07.625Z,10.40
2018-10-01T22:34:36.112Z,10.73
2018-10-01T22:37:04.458Z,10.30
2018-10-01T22:39:32.810Z,8.27
2018-10-01T22:42:01.122Z,11.67
2018-10-01T22:44:29.449Z,12.57
2018-10-01T22:46:57.701Z,8.67
2018-10-01T22:49:26.258Z,10.87
2018-10-01T22:51:54.579Z,10.07
2018-10-01T22:54:22.838Z,10.03
2018-10-01T22:56:51.096Z,12.23
2018-10-01T22:59:19.885Z,10.27
2018-10-01T23:01:48.141Z,11.33
2018-10-01T23:04:16.377Z,14.27
2018-10-01T23:06:44.642Z,11.03
2018-10-01T23:09:12.961Z,10.13
2018-10-01T23:11:41.224Z,10.20
2018-10-01T23:14:09.474Z,10.13
2018-10-01T23:16:37.745Z,12.50
2018-10-01T23:19:06.042Z,11.10
2018-10-01T23:21:34.335Z,10.70
2018-10-01T23:24:02.705Z,9.77
2018-10-01T23:26:30.959Z,8.87
2018-10-01T23:28:59.296Z,9.77
2018-10-01T23:31:27.649Z,11.47
2018-10-01T23:33:55.915Z,13.33
2018-10-01T23:36:24.192Z,14.33
2018-10-01T23:38:52.709Z,13.23
2018-10-01T23:41:20.945Z,13.63
2018-10-01T23:43:49.214Z,17.87
2018-10-01T23:46:17.636Z,13.23
2018-10-01T23:48:45.893Z,12.80
2018-10-01T23:51:14.145Z,16.63
2018-10-01T23:53:42.445Z,13.13
2018-10-01T23:56:10.721Z,23.87
2018-10-01T23:58:38.993Z,14.97
